sensor_id;sensor_type;location;lat;lon;timestamp;P1;durP1;ratioP1;P2;durP2;ratioP2
13202;SDS011;6666;51.626;7.530;2022-07-23T00:01:30;7.95;;;4.20;;
13202;SDS011;6666;51.626;7.530;2022-07-23T00:04:00;6.70;;;4.40;;
13202;SDS011;6666;51.626;7.530;2022-07-23T00:06:29;13.00;;;5.35;;
13202;SDS011;6666;51.626;7.530;2022-07-23T00:08:57;7.70;;;4.57;;
13202;SDS011;6666;51.626;7.530;2022-07-23T00:11:26;8.55;;;4.85;;
13202;SDS011;6666;51.626;7.530;2022-07-23T00:13:54;7.68;;;5.07;;
13202;SDS011;6666;51.626;7.530;2022-07-23T00:16:24;8.43;;;4.70;;
13202;SDS011;6666;51.626;7.530;2022-07-23T00:18:53;7.35;;;4.50;;
13202;SDS011;6666;51.626;7.530;2022-07-23T00:21:22;8.57;;;4.95;;
13202;SDS011;6666;51.626;7.530;2022-07-23T00:23:51;10.88;;;5.15;;
13202;SDS011;6666;51.626;7.530;2022-07-23T00:26:19;10.10;;;5.90;;
13202;SDS011;6666;51.626;7.530;2022-07-23T00:28:47;9.60;;;5.55;;
13202;SDS011;6666;51.626;7.530;2022-07-23T00:31:16;8.97;;;5.70;;
13202;SDS011;6666;51.626;7.530;2022-07-23T00:33:44;9.65;;;5.50;;
13202;SDS011;6666;51.626;7.530;2022-07-23T00:36:13;11.68;;;5.47;;
13202;SDS011;6666;51.626;7.530;2022-07-23T00:38:42;11.70;;;5.00;;
13202;SDS011;6666;51.626;7.530;2022-07-23T00:41:11;12.23;;;5.80;;
13202;SDS011;6666;51.626;7.530;2022-07-23T00:43:39;10.77;;;5.63;;
13202;SDS011;6666;51.626;7.530;2022-07-23T00:46:07;8.60;;;5.47;;
13202;SDS011;6666;51.626;7.530;2022-07-23T00:48:36;13.35;;;5.40;;
13202;SDS011;6666;51.626;7.530;2022-07-23T00:51:06;9.40;;;5.00;;
13202;SDS011;6666;51.626;7.530;2022-07-23T00:53:34;10.50;;;5.53;;
13202;SDS011;6666;51.626;7.530;2022-07-23T00:56:04;10.85;;;6.00;;
13202;SDS011;6666;51.626;7.530;2022-07-23T00:58:33;10.73;;;6.10;;
13202;SDS011;6666;51.626;7.530;2022-07-23T01:01:03;9.32;;;5.78;;
13202;SDS011;6666;51.626;7.530;2022-07-23T01:03:31;9.48;;;5.50;;
13202;SDS011;6666;51.626;7.530;2022-07-23T01:06:00;8.40;;;5.93;;
13202;SDS011;6666;51.626;7.530;2022-07-23T01:08:28;10.75;;;6.20;;
13202;SDS011;6666;51.626;7.530;2022-07-23T01:10:57;13.93;;;6.20;;
13202;SDS011;6666;51.626;7.530;2022-07-23T01:13:27;8.88;;;5.80;;
13202;SDS011;6666;51.626;7.530;2022-07-23T01:15:55;8.98;;;5.50;;
13202;SDS011;6666;51.626;7.530;2022-07-23T01:18:24;16.98;;;6.18;;
13202;SDS011;6666;51.626;7.530;2022-07-23T01:20:53;12.10;;;6.22;;
13202;SDS011;6666;51.626;7.530;2022-07-23T01:23:22;10.43;;;5.80;;
13202;SDS011;6666;51.626;7.530;2022-07-23T01:25:54;11.13;;;5.97;;
13202;SDS011;6666;51.626;7.530;2022-07-23T01:28:25;13.70;;;5.80;;
13202;SDS011;6666;51.626;7.530;2022-07-23T01:30:56;11.77;;;6.20;;
13202;SDS011;6666;51.626;7.530;2022-07-23T01:33:24;9.02;;;6.10;;
13202;SDS011;6666;51.626;7.530;2022-07-23T01:35:52;8.30;;;5.70;;
13202;SDS011;6666;51.626;7.530;2022-07-23T01:38:25;10.02;;;6.15;;
13202;SDS011;6666;51.626;7.530;2022-07-23T01:40:53;12.27;;;6.03;;
13202;SDS011;6666;51.626;7.530;2022-07-23T01:43:27;11.15;;;5.70;;
13202;SDS011;6666;51.626;7.530;2022-07-23T01:45:55;12.07;;;6.20;;
13202;SDS011;6666;51.626;7.530;2022-07-23T01:48:29;12.82;;;6.57;;
13202;SDS011;6666;51.626;7.530;2022-07-23T01:51:16;10.75;;;6.13;;
13202;SDS011;6666;51.626;7.530;2022-07-23T01:53:53;12.25;;;6.50;;
13202;SDS011;6666;51.626;7.530;2022-07-23T01:56:22;10.77;;;5.90;;
13202;SDS011;6666;51.626;7.530;2022-07-23T01:58:50;8.18;;;5.90;;
13202;SDS011;6666;51.626;7.530;2022-07-23T02:01:20;7.90;;;5.90;;
13202;SDS011;6666;51.626;7.530;2022-07-23T02:03:48;11.60;;;6.53;;
13202;SDS011;6666;51.626;7.530;2022-07-23T02:06:17;8.30;;;6.00;;
13202;SDS011;6666;51.626;7.530;2022-07-23T02:08:45;13.02;;;6.60;;
13202;SDS011;6666;51.626;7.530;2022-07-23T02:11:15;9.18;;;6.22;;
13202;SDS011;6666;51.626;7.530;2022-07-23T02:13:43;9.18;;;5.80;;
13202;SDS011;6666;51.626;7.530;2022-07-23T02:16:11;13.38;;;6.45;;
13202;SDS011;6666;51.626;7.530;2022-07-23T02:18:40;9.00;;;5.93;;
13202;SDS011;6666;51.626;7.530;2022-07-23T02:21:10;9.98;;;6.60;;
13202;SDS011;6666;51.626;7.530;2022-07-23T02:23:38;10.43;;;6.70;;
13202;SDS011;6666;51.626;7.530;2022-07-23T02:26:06;13.48;;;6.40;;
13202;SDS011;6666;51.626;7.530;2022-07-23T02:28:36;9.70;;;6.40;;
13202;SDS011;6666;51.626;7.530;2022-07-23T02:31:06;9.82;;;6.32;;
13202;SDS011;6666;51.626;7.530;2022-07-23T02:33:34;9.93;;;6.78;;
13202;SDS011;6666;51.626;7.530;2022-07-23T02:36:03;10.90;;;6.60;;
13202;SDS011;6666;51.626;7.530;2022-07-23T02:38:31;8.67;;;6.70;;
13202;SDS011;6666;51.626;7.530;2022-07-23T02:41:00;10.90;;;6.72;;
13202;SDS011;6666;51.626;7.530;2022-07-23T02:43:28;8.80;;;6.50;;
13202;SDS011;6666;51.626;7.530;2022-07-23T02:45:58;11.33;;;6.53;;
13202;SDS011;6666;51.626;7.530;2022-07-23T02:48:27;9.10;;;6.33;;
13202;SDS011;6666;51.626;7.530;2022-07-23T02:50:58;10.13;;;6.50;;
13202;SDS011;6666;51.626;7.530;2022-07-23T02:53:33;12.00;;;6.90;;
13202;SDS011;6666;51.626;7.530;2022-07-23T02:56:01;12.82;;;6.90;;
13202;SDS011;6666;51.626;7.530;2022-07-23T02:58:29;15.15;;;8.20;;
13202;SDS011;6666;51.626;7.530;2022-07-23T03:01:01;11.15;;;7.05;;
13202;SDS011;6666;51.626;7.530;2022-07-23T03:03:29;10.00;;;6.90;;
13202;SDS011;6666;51.626;7.530;2022-07-23T03:05:59;10.00;;;6.72;;
13202;SDS011;6666;51.626;7.530;2022-07-23T03:08:27;16.50;;;9.80;;
13202;SDS011;6666;51.626;7.530;2022-07-23T03:10:55;13.48;;;7.63;;
13202;SDS011;6666;51.626;7.530;2022-07-23T03:13:24;16.60;;;7.50;;
13202;SDS011;6666;51.626;7.530;2022-07-23T03:20:01;14.80;;;8.05;;
13202;SDS011;6666;51.626;7.530;2022-07-23T03:22:30;15.52;;;8.05;;
13202;SDS011;6666;51.626;7.530;2022-07-23T03:24:58;11.90;;;6.93;;
13202;SDS011;6666;51.626;7.530;2022-07-23T03:27:31;9.63;;;6.63;;
13202;SDS011;6666;51.626;7.530;2022-07-23T03:29:59;11.55;;;6.90;;
13202;SDS011;6666;51.626;7.530;2022-07-23T03:32:28;9.00;;;6.63;;
13202;SDS011;6666;51.626;7.530;2022-07-23T03:34:57;11.47;;;7.47;;
13202;SDS011;6666;51.626;7.530;2022-07-23T03:37:27;10.80;;;6.93;;
13202;SDS011;6666;51.626;7.530;2022-07-23T03:39:57;14.15;;;6.72;;
13202;SDS011;6666;51.626;7.530;2022-07-23T03:42:26;10.77;;;7.15;;
13202;SDS011;6666;51.626;7.530;2022-07-23T03:44:54;9.95;;;7.25;;
13202;SDS011;6666;51.626;7.530;2022-07-23T03:47:23;10.07;;;6.90;;
13202;SDS011;6666;51.626;7.530;2022-07-23T03:49:51;13.25;;;7.30;;
13202;SDS011;6666;51.626;7.530;2022-07-23T03:52:20;13.77;;;7.97;;
13202;SDS011;6666;51.626;7.530;2022-07-23T03:54:52;12.00;;;7.60;;
13202;SDS011;6666;51.626;7.530;2022-07-23T03:57:22;13.30;;;8.27;;
13202;SDS011;6666;51.626;7.530;2022-07-23T03:59:50;12.60;;;7.60;;
13202;SDS011;6666;51.626;7.530;2022-07-23T04:02:19;13.97;;;8.03;;
13202;SDS011;6666;51.626;7.530;2022-07-23T04:04:47;12.73;;;8.30;;
13202;SDS011;6666;51.626;7.530;2022-07-23T04:07:15;14.07;;;7.70;;
13202;SDS011;6666;51.626;7.530;2022-07-23T04:09:45;12.63;;;7.75;;
13202;SDS011;6666;51.626;7.530;2022-07-23T04:12:14;11.05;;;7.60;;
13202;SDS011;6666;51.626;7.530;2022-07-23T04:14:43;13.17;;;8.00;;
13202;SDS011;6666;51.626;7.530;2022-07-23T04:17:11;12.10;;;7.47;;
13202;SDS011;6666;51.626;7.530;2022-07-23T04:19:41;11.88;;;7.22;;
13202;SDS011;6666;51.626;7.530;2022-07-23T04:22:14;11.63;;;6.90;;
13202;SDS011;6666;51.626;7.530;2022-07-23T04:24:42;10.52;;;7.30;;
13202;SDS011;6666;51.626;7.530;2022-07-23T04:27:10;12.13;;;6.90;;
13202;SDS011;6666;51.626;7.530;2022-07-23T04:29:40;11.80;;;5.97;;
13202;SDS011;6666;51.626;7.530;2022-07-23T04:32:08;12.05;;;6.50;;
13202;SDS011;6666;51.626;7.530;2022-07-23T04:34:37;10.70;;;7.30;;
13202;SDS011;6666;51.626;7.530;2022-07-23T04:37:06;9.65;;;6.25;;
13202;SDS011;6666;51.626;7.530;2022-07-23T04:39:35;8.32;;;5.95;;
13202;SDS011;6666;51.626;7.530;2022-07-23T04:42:04;10.70;;;6.40;;
13202;SDS011;6666;51.626;7.530;2022-07-23T04:44:32;9.27;;;6.50;;
13202;SDS011;6666;51.626;7.530;2022-07-23T04:47:04;9.57;;;6.93;;
13202;SDS011;6666;51.626;7.530;2022-07-23T04:49:33;14.60;;;6.90;;
13202;SDS011;6666;51.626;7.530;2022-07-23T04:52:02;7.57;;;5.88;;
13202;SDS011;6666;51.626;7.530;2022-07-23T04:54:31;10.90;;;7.60;;
13202;SDS011;6666;51.626;7.530;2022-07-23T04:56:59;8.63;;;5.80;;
13202;SDS011;6666;51.626;7.530;2022-07-23T04:59:30;10.70;;;5.55;;
13202;SDS011;6666;51.626;7.530;2022-07-23T05:02:03;7.23;;;5.10;;
13202;SDS011;6666;51.626;7.530;2022-07-23T05:04:32;8.60;;;4.80;;
13202;SDS011;6666;51.626;7.530;2022-07-23T05:07:01;8.52;;;5.03;;
13202;SDS011;6666;51.626;7.530;2022-07-23T05:09:31;7.43;;;5.00;;
13202;SDS011;6666;51.626;7.530;2022-07-23T05:12:00;9.20;;;5.20;;
13202;SDS011;6666;51.626;7.530;2022-07-23T05:14:30;9.27;;;5.70;;
13202;SDS011;6666;51.626;7.530;2022-07-23T05:16:59;8.10;;;5.40;;
13202;SDS011;6666;51.626;7.530;2022-07-23T05:19:29;8.17;;;5.10;;
13202;SDS011;6666;51.626;7.530;2022-07-23T05:21:57;8.43;;;4.45;;
13202;SDS011;6666;51.626;7.530;2022-07-23T05:24:25;6.23;;;4.50;;
13202;SDS011;6666;51.626;7.530;2022-07-23T05:26:54;6.30;;;4.40;;
13202;SDS011;6666;51.626;7.530;2022-07-23T05:29:25;8.40;;;4.30;;
13202;SDS011;6666;51.626;7.530;2022-07-23T05:31:54;7.40;;;4.47;;
13202;SDS011;6666;51.626;7.530;2022-07-23T05:34:23;7.90;;;5.65;;
13202;SDS011;6666;51.626;7.530;2022-07-23T05:36:52;4.90;;;4.25;;
13202;SDS011;6666;51.626;7.530;2022-07-23T05:39:21;6.70;;;4.70;;
13202;SDS011;6666;51.626;7.530;2022-07-23T05:41:49;7.63;;;4.03;;
13202;SDS011;6666;51.626;7.530;2022-07-23T05:44:17;4.55;;;3.38;;
13202;SDS011;6666;51.626;7.530;2022-07-23T05:46:47;9.02;;;4.60;;
13202;SDS011;6666;51.626;7.530;2022-07-23T05:49:19;4.72;;;3.60;;
13202;SDS011;6666;51.626;7.530;2022-07-23T05:52:08;5.45;;;3.50;;
13202;SDS011;6666;51.626;7.530;2022-07-23T05:54:55;5.90;;;3.90;;
13202;SDS011;6666;51.626;7.530;2022-07-23T05:57:24;5.50;;;3.83;;
13202;SDS011;6666;51.626;7.530;2022-07-23T05:59:53;6.93;;;3.67;;
13202;SDS011;6666;51.626;7.530;2022-07-23T06:02:21;5.07;;;3.45;;
13202;SDS011;6666;51.626;7.530;2022-07-23T06:04:49;4.15;;;3.50;;
13202;SDS011;6666;51.626;7.530;2022-07-23T06:07:27;5.90;;;3.97;;
13202;SDS011;6666;51.626;7.530;2022-07-23T06:09:56;4.93;;;3.50;;
13202;SDS011;6666;51.626;7.530;2022-07-23T06:12:24;4.95;;;3.40;;
13202;SDS011;6666;51.626;7.530;2022-07-23T06:14:53;6.90;;;3.47;;
13202;SDS011;6666;51.626;7.530;2022-07-23T06:17:22;4.43;;;3.50;;
13202;SDS011;6666;51.626;7.530;2022-07-23T06:19:52;6.95;;;4.28;;
13202;SDS011;6666;51.626;7.530;2022-07-23T06:22:20;6.20;;;3.60;;
13202;SDS011;6666;51.626;7.530;2022-07-23T06:24:50;6.10;;;4.05;;
13202;SDS011;6666;51.626;7.530;2022-07-23T06:27:20;10.45;;;6.50;;
13202;SDS011;6666;51.626;7.530;2022-07-23T06:29:52;7.85;;;4.72;;
13202;SDS011;6666;51.626;7.530;2022-07-23T06:32:20;5.15;;;3.83;;
13202;SDS011;6666;51.626;7.530;2022-07-23T06:34:48;7.05;;;4.72;;
13202;SDS011;6666;51.626;7.530;2022-07-23T06:37:20;6.18;;;4.43;;
13202;SDS011;6666;51.626;7.530;2022-07-23T06:39:50;8.13;;;4.38;;
13202;SDS011;6666;51.626;7.530;2022-07-23T06:42:18;8.93;;;4.90;;
13202;SDS011;6666;51.626;7.530;2022-07-23T06:44:55;11.07;;;5.20;;
13202;SDS011;6666;51.626;7.530;2022-07-23T06:47:23;8.73;;;5.13;;
13202;SDS011;6666;51.626;7.530;2022-07-23T06:49:52;8.93;;;5.30;;
13202;SDS011;6666;51.626;7.530;2022-07-23T06:52:20;9.07;;;5.25;;
13202;SDS011;6666;51.626;7.530;2022-07-23T06:54:50;12.05;;;7.13;;
13202;SDS011;6666;51.626;7.530;2022-07-23T06:57:18;11.52;;;6.40;;
13202;SDS011;6666;51.626;7.530;2022-07-23T06:59:48;11.77;;;6.90;;
13202;SDS011;6666;51.626;7.530;2022-07-23T07:02:21;10.88;;;6.18;;
13202;SDS011;6666;51.626;7.530;2022-07-23T07:04:50;13.25;;;6.20;;
13202;SDS011;6666;51.626;7.530;2022-07-23T07:07:18;10.57;;;6.60;;
13202;SDS011;6666;51.626;7.530;2022-07-23T07:09:47;12.00;;;6.72;;
13202;SDS011;6666;51.626;7.530;2022-07-23T07:12:16;9.57;;;6.63;;
13202;SDS011;6666;51.626;7.530;2022-07-23T07:14:45;12.00;;;6.03;;
13202;SDS011;6666;51.626;7.530;2022-07-23T07:17:13;12.38;;;6.50;;
13202;SDS011;6666;51.626;7.530;2022-07-23T07:19:41;14.52;;;7.30;;
13202;SDS011;6666;51.626;7.530;2022-07-23T07:22:10;10.60;;;6.27;;
13202;SDS011;6666;51.626;7.530;2022-07-23T07:24:38;12.70;;;7.00;;
13202;SDS011;6666;51.626;7.530;2022-07-23T07:27:06;12.98;;;6.80;;
13202;SDS011;6666;51.626;7.530;2022-07-23T07:29:36;18.70;;;10.93;;
13202;SDS011;6666;51.626;7.530;2022-07-23T07:32:04;22.40;;;14.65;;
13202;SDS011;6666;51.626;7.530;2022-07-23T07:34:33;14.63;;;8.40;;
13202;SDS011;6666;51.626;7.530;2022-07-23T07:37:01;12.85;;;8.70;;
13202;SDS011;6666;51.626;7.530;2022-07-23T07:39:30;13.18;;;7.45;;
13202;SDS011;6666;51.626;7.530;2022-07-23T07:41:58;14.87;;;10.10;;
13202;SDS011;6666;51.626;7.530;2022-07-23T07:44:26;16.30;;;9.40;;
13202;SDS011;6666;51.626;7.530;2022-07-23T07:46:56;11.35;;;7.53;;
13202;SDS011;6666;51.626;7.530;2022-07-23T07:49:24;13.10;;;9.07;;
13202;SDS011;6666;51.626;7.530;2022-07-23T07:52:00;10.52;;;6.20;;
13202;SDS011;6666;51.626;7.530;2022-07-23T07:54:29;10.87;;;5.80;;
13202;SDS011;6666;51.626;7.530;2022-07-23T07:56:57;10.93;;;6.50;;
13202;SDS011;6666;51.626;7.530;2022-07-23T07:59:25;8.80;;;6.18;;
13202;SDS011;6666;51.626;7.530;2022-07-23T08:02:00;10.80;;;6.10;;
13202;SDS011;6666;51.626;7.530;2022-07-23T08:04:29;8.37;;;5.60;;
13202;SDS011;6666;51.626;7.530;2022-07-23T08:06:57;9.82;;;5.90;;
13202;SDS011;6666;51.626;7.530;2022-07-23T08:09:25;9.68;;;5.63;;
13202;SDS011;6666;51.626;7.530;2022-07-23T08:11:54;10.70;;;5.18;;
13202;SDS011;6666;51.626;7.530;2022-07-23T08:14:22;7.55;;;4.85;;
13202;SDS011;6666;51.626;7.530;2022-07-23T08:16:50;7.97;;;5.10;;
13202;SDS011;6666;51.626;7.530;2022-07-23T08:19:40;7.10;;;4.30;;
13202;SDS011;6666;51.626;7.530;2022-07-23T08:22:08;8.68;;;3.90;;
13202;SDS011;6666;51.626;7.530;2022-07-23T08:24:37;6.53;;;3.92;;
13202;SDS011;6666;51.626;7.530;2022-07-23T08:27:05;7.80;;;5.00;;
13202;SDS011;6666;51.626;7.530;2022-07-23T08:29:33;5.55;;;3.72;;
13202;SDS011;6666;51.626;7.530;2022-07-23T08:32:02;7.15;;;3.65;;
13202;SDS011;6666;51.626;7.530;2022-07-23T08:34:52;6.75;;;3.53;;
13202;SDS011;6666;51.626;7.530;2022-07-23T08:37:20;8.55;;;3.72;;
13202;SDS011;6666;51.626;7.530;2022-07-23T08:39:49;6.55;;;3.40;;
13202;SDS011;6666;51.626;7.530;2022-07-23T08:42:17;5.33;;;3.70;;
13202;SDS011;6666;51.626;7.530;2022-07-23T08:44:46;4.90;;;3.40;;
13202;SDS011;6666;51.626;7.530;2022-07-23T08:47:16;7.90;;;4.20;;
13202;SDS011;6666;51.626;7.530;2022-07-23T08:49:45;5.13;;;3.40;;
13202;SDS011;6666;51.626;7.530;2022-07-23T08:52:16;5.07;;;3.07;;
13202;SDS011;6666;51.626;7.530;2022-07-23T08:54:48;7.20;;;3.60;;
13202;SDS011;6666;51.626;7.530;2022-07-23T08:57:17;4.10;;;3.15;;
13202;SDS011;6666;51.626;7.530;2022-07-23T08:59:45;5.70;;;3.30;;
13202;SDS011;6666;51.626;7.530;2022-07-23T09:02:13;6.05;;;3.05;;
13202;SDS011;6666;51.626;7.530;2022-07-23T09:04:42;5.25;;;2.63;;
13202;SDS011;6666;51.626;7.530;2022-07-23T09:07:10;4.05;;;2.50;;
13202;SDS011;6666;51.626;7.530;2022-07-23T09:09:40;3.20;;;2.30;;
13202;SDS011;6666;51.626;7.530;2022-07-23T09:12:09;5.25;;;2.70;;
13202;SDS011;6666;51.626;7.530;2022-07-23T09:14:39;4.07;;;3.00;;
13202;SDS011;6666;51.626;7.530;2022-07-23T09:17:09;6.65;;;2.80;;
13202;SDS011;6666;51.626;7.530;2022-07-23T09:19:38;6.20;;;3.20;;
13202;SDS011;6666;51.626;7.530;2022-07-23T09:22:16;3.42;;;2.50;;
13202;SDS011;6666;51.626;7.530;2022-07-23T09:25:04;4.17;;;2.60;;
13202;SDS011;6666;51.626;7.530;2022-07-23T09:30:30;5.68;;;2.60;;
13202;SDS011;6666;51.626;7.530;2022-07-23T09:33:04;7.05;;;4.57;;
13202;SDS011;6666;51.626;7.530;2022-07-23T09:35:44;19.63;;;13.50;;
13202;SDS011;6666;51.626;7.530;2022-07-23T09:38:13;12.48;;;8.93;;
13202;SDS011;6666;51.626;7.530;2022-07-23T09:40:43;4.40;;;2.90;;
13202;SDS011;6666;51.626;7.530;2022-07-23T09:43:12;7.05;;;2.90;;
13202;SDS011;6666;51.626;7.530;2022-07-23T09:48:44;3.85;;;2.50;;
13202;SDS011;6666;51.626;7.530;2022-07-23T09:51:13;3.40;;;2.40;;
13202;SDS011;6666;51.626;7.530;2022-07-23T09:53:43;6.40;;;2.50;;
13202;SDS011;6666;51.626;7.530;2022-07-23T09:56:13;15.90;;;10.93;;
13202;SDS011;6666;51.626;7.530;2022-07-23T09:58:42;5.20;;;2.92;;
13202;SDS011;6666;51.626;7.530;2022-07-23T10:01:16;5.35;;;3.40;;
13202;SDS011;6666;51.626;7.530;2022-07-23T10:03:46;2.38;;;1.98;;
13202;SDS011;6666;51.626;7.530;2022-07-23T10:06:42;5.15;;;2.47;;
13202;SDS011;6666;51.626;7.530;2022-07-23T10:09:32;5.25;;;3.10;;
13202;SDS011;6666;51.626;7.530;2022-07-23T10:12:19;6.00;;;4.27;;
13202;SDS011;6666;51.626;7.530;2022-07-23T10:15:01;5.03;;;2.33;;
13202;SDS011;6666;51.626;7.530;2022-07-23T10:17:31;4.57;;;2.60;;
13202;SDS011;6666;51.626;7.530;2022-07-23T10:19:59;3.88;;;2.50;;
13202;SDS011;6666;51.626;7.530;2022-07-23T10:22:29;3.10;;;2.45;;
13202;SDS011;6666;51.626;7.530;2022-07-23T10:25:00;6.23;;;3.73;;
13202;SDS011;6666;51.626;7.530;2022-07-23T10:27:47;3.90;;;2.00;;
13202;SDS011;6666;51.626;7.530;2022-07-23T10:30:29;6.63;;;3.67;;
13202;SDS011;6666;51.626;7.530;2022-07-23T10:33:12;5.35;;;4.25;;
13202;SDS011;6666;51.626;7.530;2022-07-23T10:35:58;7.30;;;5.03;;
13202;SDS011;6666;51.626;7.530;2022-07-23T10:38:33;7.97;;;4.23;;
13202;SDS011;6666;51.626;7.530;2022-07-23T10:41:07;4.35;;;2.67;;
13202;SDS011;6666;51.626;7.530;2022-07-23T10:43:40;3.10;;;2.22;;
13202;SDS011;6666;51.626;7.530;2022-07-23T10:46:22;5.95;;;3.83;;
13202;SDS011;6666;51.626;7.530;2022-07-23T10:54:47;16.30;;;7.82;;
13202;SDS011;6666;51.626;7.530;2022-07-23T10:57:17;6.03;;;3.33;;
13202;SDS011;6666;51.626;7.530;2022-07-23T11:02:48;3.47;;;2.30;;
13202;SDS011;6666;51.626;7.530;2022-07-23T11:05:18;3.38;;;1.50;;
13202;SDS011;6666;51.626;7.530;2022-07-23T11:10:45;5.47;;;3.97;;
13202;SDS011;6666;51.626;7.530;2022-07-23T11:16:15;3.45;;;1.52;;
13202;SDS011;6666;51.626;7.530;2022-07-23T11:21:45;4.28;;;2.05;;
13202;SDS011;6666;51.626;7.530;2022-07-23T11:24:18;3.30;;;1.60;;
13202;SDS011;6666;51.626;7.530;2022-07-23T11:26:49;3.70;;;1.42;;
13202;SDS011;6666;51.626;7.530;2022-07-23T11:32:33;3.80;;;1.50;;
13202;SDS011;6666;51.626;7.530;2022-07-23T11:35:22;3.35;;;1.77;;
13202;SDS011;6666;51.626;7.530;2022-07-23T11:37:54;2.25;;;1.30;;
13202;SDS011;6666;51.626;7.530;2022-07-23T11:40:32;2.40;;;1.10;;
13202;SDS011;6666;51.626;7.530;2022-07-23T11:43:02;1.60;;;1.50;;
13202;SDS011;6666;51.626;7.530;2022-07-23T11:45:33;2.90;;;1.30;;
13202;SDS011;6666;51.626;7.530;2022-07-23T11:48:05;2.15;;;1.20;;
13202;SDS011;6666;51.626;7.530;2022-07-23T11:50:35;1.48;;;1.30;;
13202;SDS011;6666;51.626;7.530;2022-07-23T11:53:04;1.40;;;1.20;;
13202;SDS011;6666;51.626;7.530;2022-07-23T11:55:32;2.10;;;1.20;;
13202;SDS011;6666;51.626;7.530;2022-07-23T11:58:00;2.72;;;1.35;;
13202;SDS011;6666;51.626;7.530;2022-07-23T12:00:29;2.40;;;1.40;;
13202;SDS011;6666;51.626;7.530;2022-07-23T12:03:07;1.88;;;1.27;;
13202;SDS011;6666;51.626;7.530;2022-07-23T12:05:37;1.50;;;1.00;;
13202;SDS011;6666;51.626;7.530;2022-07-23T12:08:06;2.70;;;1.30;;
13202;SDS011;6666;51.626;7.530;2022-07-23T12:10:37;3.80;;;1.30;;
13202;SDS011;6666;51.626;7.530;2022-07-23T12:13:08;1.50;;;1.20;;
13202;SDS011;6666;51.626;7.530;2022-07-23T12:15:39;2.83;;;1.30;;
13202;SDS011;6666;51.626;7.530;2022-07-23T12:18:11;1.70;;;1.10;;
13202;SDS011;6666;51.626;7.530;2022-07-23T12:20:41;1.45;;;1.10;;
13202;SDS011;6666;51.626;7.530;2022-07-23T12:23:12;5.40;;;1.40;;
13202;SDS011;6666;51.626;7.530;2022-07-23T12:25:46;3.33;;;1.20;;
13202;SDS011;6666;51.626;7.530;2022-07-23T12:28:16;1.05;;;0.95;;
13202;SDS011;6666;51.626;7.530;2022-07-23T12:30:46;2.50;;;1.23;;
13202;SDS011;6666;51.626;7.530;2022-07-23T12:33:21;1.70;;;1.20;;
13202;SDS011;6666;51.626;7.530;2022-07-23T12:35:52;2.00;;;1.20;;
13202;SDS011;6666;51.626;7.530;2022-07-23T12:38:21;3.90;;;1.30;;
13202;SDS011;6666;51.626;7.530;2022-07-23T12:40:52;2.00;;;1.27;;
13202;SDS011;6666;51.626;7.530;2022-07-23T12:43:23;2.40;;;1.30;;
13202;SDS011;6666;51.626;7.530;2022-07-23T12:45:52;2.78;;;1.35;;
13202;SDS011;6666;51.626;7.530;2022-07-23T12:48:24;2.20;;;1.30;;
13202;SDS011;6666;51.626;7.530;2022-07-23T12:50:55;1.75;;;0.90;;
13202;SDS011;6666;51.626;7.530;2022-07-23T12:53:26;2.75;;;1.30;;
13202;SDS011;6666;51.626;7.530;2022-07-23T12:56:00;2.67;;;1.30;;
13202;SDS011;6666;51.626;7.530;2022-07-23T12:58:41;1.88;;;1.15;;
13202;SDS011;6666;51.626;7.530;2022-07-23T13:01:24;2.10;;;1.20;;
13202;SDS011;6666;51.626;7.530;2022-07-23T13:03:58;1.55;;;1.13;;
13202;SDS011;6666;51.626;7.530;2022-07-23T13:06:40;1.70;;;1.30;;
13202;SDS011;6666;51.626;7.530;2022-07-23T13:09:11;2.70;;;1.30;;
13202;SDS011;6666;51.626;7.530;2022-07-23T13:11:41;2.45;;;1.30;;
13202;SDS011;6666;51.626;7.530;2022-07-23T13:14:10;1.38;;;1.20;;
13202;SDS011;6666;51.626;7.530;2022-07-23T13:16:40;1.60;;;1.23;;
13202;SDS011;6666;51.626;7.530;2022-07-23T13:19:10;1.65;;;1.45;;
13202;SDS011;6666;51.626;7.530;2022-07-23T13:21:40;1.58;;;1.20;;
13202;SDS011;6666;51.626;7.530;2022-07-23T13:24:10;1.20;;;1.10;;
13202;SDS011;6666;51.626;7.530;2022-07-23T13:26:39;4.65;;;3.33;;
13202;SDS011;6666;51.626;7.530;2022-07-23T13:29:08;3.42;;;1.70;;
13202;SDS011;6666;51.626;7.530;2022-07-23T13:31:37;2.40;;;1.70;;
13202;SDS011;6666;51.626;7.530;2022-07-23T13:34:06;3.25;;;2.00;;
13202;SDS011;6666;51.626;7.530;2022-07-23T13:36:36;1.98;;;1.40;;
13202;SDS011;6666;51.626;7.530;2022-07-23T13:39:04;1.80;;;1.15;;
13202;SDS011;6666;51.626;7.530;2022-07-23T13:41:53;2.20;;;1.40;;
13202;SDS011;6666;51.626;7.530;2022-07-23T13:44:21;2.13;;;1.42;;
13202;SDS011;6666;51.626;7.530;2022-07-23T13:46:52;2.30;;;1.30;;
13202;SDS011;6666;51.626;7.530;2022-07-23T13:49:21;1.73;;;1.20;;
13202;SDS011;6666;51.626;7.530;2022-07-23T13:51:51;1.33;;;1.10;;
13202;SDS011;6666;51.626;7.530;2022-07-23T13:54:19;1.73;;;1.10;;
13202;SDS011;6666;51.626;7.530;2022-07-23T13:56:48;1.30;;;1.10;;
13202;SDS011;6666;51.626;7.530;2022-07-23T13:59:16;1.77;;;1.27;;
13202;SDS011;6666;51.626;7.530;2022-07-23T14:01:44;1.42;;;1.20;;
13202;SDS011;6666;51.626;7.530;2022-07-23T14:04:33;2.78;;;1.30;;
13202;SDS011;6666;51.626;7.530;2022-07-23T14:07:03;4.40;;;1.30;;
13202;SDS011;6666;51.626;7.530;2022-07-23T14:09:32;3.60;;;1.50;;
13202;SDS011;6666;51.626;7.530;2022-07-23T14:12:01;2.40;;;1.10;;
13202;SDS011;6666;51.626;7.530;2022-07-23T14:14:30;3.50;;;1.25;;
13202;SDS011;6666;51.626;7.530;2022-07-23T14:17:02;2.30;;;1.20;;
13202;SDS011;6666;51.626;7.530;2022-07-23T14:19:32;1.83;;;1.52;;
13202;SDS011;6666;51.626;7.530;2022-07-23T14:22:03;3.03;;;1.40;;
13202;SDS011;6666;51.626;7.530;2022-07-23T14:24:32;2.80;;;1.27;;
13202;SDS011;6666;51.626;7.530;2022-07-23T14:27:01;1.77;;;1.60;;
13202;SDS011;6666;51.626;7.530;2022-07-23T14:29:31;3.60;;;1.23;;
13202;SDS011;6666;51.626;7.530;2022-07-23T14:32:00;2.10;;;1.20;;
13202;SDS011;6666;51.626;7.530;2022-07-23T14:34:29;1.70;;;1.20;;
13202;SDS011;6666;51.626;7.530;2022-07-23T14:37:00;2.00;;;1.20;;
13202;SDS011;6666;51.626;7.530;2022-07-23T14:39:30;3.75;;;1.45;;
13202;SDS011;6666;51.626;7.530;2022-07-23T14:41:58;2.90;;;1.20;;
13202;SDS011;6666;51.626;7.530;2022-07-23T14:44:27;2.30;;;1.45;;
13202;SDS011;6666;51.626;7.530;2022-07-23T14:46:55;1.60;;;1.30;;
13202;SDS011;6666;51.626;7.530;2022-07-23T14:49:24;5.30;;;1.38;;
13202;SDS011;6666;51.626;7.530;2022-07-23T14:51:53;2.92;;;1.20;;
13202;SDS011;6666;51.626;7.530;2022-07-23T14:54:23;2.60;;;1.40;;
13202;SDS011;6666;51.626;7.530;2022-07-23T14:56:53;2.03;;;1.50;;
13202;SDS011;6666;51.626;7.530;2022-07-23T14:59:22;1.70;;;1.30;;
13202;SDS011;6666;51.626;7.530;2022-07-23T15:01:52;2.20;;;1.50;;
13202;SDS011;6666;51.626;7.530;2022-07-23T15:04:22;6.85;;;4.05;;
13202;SDS011;6666;51.626;7.530;2022-07-23T15:07:02;3.30;;;1.93;;
13202;SDS011;6666;51.626;7.530;2022-07-23T15:09:32;1.70;;;1.20;;
13202;SDS011;6666;51.626;7.530;2022-07-23T15:12:01;4.10;;;1.60;;
13202;SDS011;6666;51.626;7.530;2022-07-23T15:14:33;2.70;;;1.50;;
13202;SDS011;6666;51.626;7.530;2022-07-23T15:17:01;1.70;;;1.55;;
13202;SDS011;6666;51.626;7.530;2022-07-23T15:19:30;3.13;;;1.50;;
13202;SDS011;6666;51.626;7.530;2022-07-23T15:21:58;3.78;;;1.70;;
13202;SDS011;6666;51.626;7.530;2022-07-23T15:24:48;9.48;;;6.93;;
13202;SDS011;6666;51.626;7.530;2022-07-23T15:27:16;9.07;;;4.40;;
13202;SDS011;6666;51.626;7.530;2022-07-23T15:29:45;2.00;;;1.60;;
13202;SDS011;6666;51.626;7.530;2022-07-23T15:32:13;2.70;;;1.80;;
13202;SDS011;6666;51.626;7.530;2022-07-23T15:34:42;1.50;;;1.40;;
13202;SDS011;6666;51.626;7.530;2022-07-23T15:37:13;1.90;;;1.63;;
13202;SDS011;6666;51.626;7.530;2022-07-23T15:39:42;1.80;;;1.50;;
13202;SDS011;6666;51.626;7.530;2022-07-23T15:42:13;2.10;;;1.90;;
13202;SDS011;6666;51.626;7.530;2022-07-23T15:44:41;2.20;;;1.67;;
13202;SDS011;6666;51.626;7.530;2022-07-23T15:47:12;2.00;;;1.80;;
13202;SDS011;6666;51.626;7.530;2022-07-23T15:49:43;3.97;;;1.90;;